Temp: 17.2°C   Baro: 1010.1mb
  Wind: 4.9mph   Dir: NW (318°)
  Rain: 0.8mm (0.0mm/hr)
  Solar: 121W/m2  Hum: 91%
 
Bath Spa Weather Station Historical Data
Daily Summary for November 09, 2019 Units:  Metric    English   Both
Daily Weekly Monthly Yearly Custom
  High: Low: Average:
Temperature: 7.1 °C -1.3 °C 3.2 °C
Dew Point: 6.2 °C -2.4 °C 2.2 °C
Humidity: 95% 89% 93%
Wind Speed: 8.9km/h 0km/h 2.4km/h
Wind Gust: 19.3km/h - -
Wind- - SW
Pressure: 1013.1 hPa 1000.2 hPa -
Precipitation: 7.62 mm    
Historical Graphs
 
 
Tabular Data for November 09, 2019
Time Temperature Dew Point Pressure Wind Wind Speed Wind Gust Humidity Rainfall Rate (Hourly) solar
00:04 1.6 °C -0.1 °C 1012.8 hPa NW 0.2 km/h 1.6 km/h 89% 0 mm 0 W/m2
00:09 1.6 °C -0.1 °C 1013.1 hPa NW 0.2 km/h 3.2 km/h 89% 0 mm 0 W/m2
00:14 1.4 °C -0.2 °C 1013.1 hPa NW 1.1 km/h 4.8 km/h 89% 0 mm 0 W/m2
00:19 1.3 °C -0.3 °C 1013.1 hPa Calm   1.6 km/h 89% 0 mm 0 W/m2
00:24 1.2 °C -0.4 °C 1013.1 hPa Calm     89% 0 mm 0 W/m2
00:29 1.2 °C -0.4 °C 1013.1 hPa Calm   1.6 km/h 89% 0 mm 0 W/m2
00:34 1.1 °C -0.5 °C 1013.1 hPa NW 0.2 km/h 1.6 km/h 89% 0 mm 0 W/m2
00:39 1 °C -0.6 °C 1013.1 hPa Calm     89% 0 mm 0 W/m2
00:44 0.8 °C -0.8 °C 1013.1 hPa Calm     89% 0 mm 0 W/m2
00:49 0.8 °C -0.8 °C 1012.8 hPa Calm     89% 0 mm 0 W/m2
00:54 0.7 °C -0.9 °C 1012.8 hPa Calm     89% 0 mm 0 W/m2
00:59 0.6 °C -1 °C 1012.8 hPa Calm     89% 0 mm 0 W/m2
01:04 0.6 °C -0.9 °C 1012.8 hPa Calm     89.5% 0 mm 0 W/m2
01:09 0.5 °C -0.9 °C 1012.8 hPa Calm     90% 0 mm 0 W/m2
01:14 0.4 °C -1 °C 1012.8 hPa Calm   1.6 km/h 90% 0 mm 0 W/m2
01:19 0.4 °C -1 °C 1012.8 hPa NW 0.3 km/h 3.2 km/h 90% 0 mm 0 W/m2
01:24 0.2 °C -1.2 °C 1012.8 hPa NW 0.5 km/h 1.6 km/h 90% 0 mm 0 W/m2
01:29 0.2 °C -1.2 °C 1012.8 hPa NW 0.3 km/h 1.6 km/h 90% 0 mm 0 W/m2
01:34 0.3 °C -1.1 °C 1012.8 hPa Calm   1.6 km/h 90% 0 mm 0 W/m2
01:39 0.2 °C -1.2 °C 1012.8 hPa Calm     90% 0 mm 0 W/m2
01:44 0.1 °C -1.3 °C 1012.8 hPa Calm     90% 0 mm 0 W/m2
01:49 0.1 °C -1.3 °C 1012.4 hPa Calm   1.6 km/h 90% 0 mm 0 W/m2
01:54 0.1 °C -1.3 °C 1012.4 hPa Calm     90.8% 0 mm 0 W/m2
01:59 0 °C -1.3 °C 1012.4 hPa Calm     91% 0 mm 0 W/m2
02:04 -0.1 °C -1.3 °C 1012.4 hPa Calm     91% 0 mm 0 W/m2
02:09 -0.1 °C -1.4 °C 1012.1 hPa Calm     91% 0 mm 0 W/m2
02:14 -0.2 °C -1.5 °C 1012.1 hPa Calm     91% 0 mm 0 W/m2
02:19 -0.3 °C -1.6 °C 1012.1 hPa Calm     91% 0 mm 0 W/m2
02:24 -0.2 °C -1.6 °C 1012.1 hPa Calm     91% 0 mm 0 W/m2
02:29 -0.2 °C -1.6 °C 1012.1 hPa Calm     91% 0 mm 0 W/m2
02:34 -0.3 °C -1.6 °C 1012.1 hPa Calm     91% 0 mm 0 W/m2
02:39 -0.3 °C -1.6 °C 1011.7 hPa Calm     91% 0 mm 0 W/m2
02:44 -0.3 °C -1.6 °C 1011.7 hPa Calm     91% 0 mm 0 W/m2
02:49 -0.3 °C -1.6 °C 1011.7 hPa Calm     91% 0 mm 0 W/m2
02:54 -0.3 °C -1.7 °C 1011.7 hPa Calm     91% 0 mm 0 W/m2
02:59 -0.4 °C -1.7 °C 1011.7 hPa Calm     91% 0 mm 0 W/m2
03:04 -0.3 °C -1.7 °C 1011.4 hPa Calm     91% 0 mm 0 W/m2
03:09 -0.4 °C -1.7 °C 1011.4 hPa Calm     91% 0 mm 0 W/m2
03:14 -0.6 °C -1.9 °C 1011.4 hPa Calm     91% 0 mm 0 W/m2
03:19 -0.6 °C -1.9 °C 1011.4 hPa Calm     91% 0 mm 0 W/m2
03:24 -0.6 °C -1.9 °C 1011.4 hPa Calm     91% 0 mm 0 W/m2
03:29 -0.6 °C -1.8 °C 1011.1 hPa Calm     91.4% 0 mm 0 W/m2
03:34 -0.6 °C -1.7 °C 1011.1 hPa Calm     91.7% 0 mm 0 W/m2
03:39 -0.6 °C -1.7 °C 1011.1 hPa Calm     92% 0 mm 0 W/m2
03:44 -0.7 °C -1.8 °C 1011.1 hPa Calm     92% 0 mm 0 W/m2
03:49 -0.7 °C -1.7 °C 1011.1 hPa Calm     92% 0 mm 0 W/m2
03:54 -0.6 °C -1.7 °C 1011.1 hPa Calm     92% 0 mm 0 W/m2
03:59 -0.7 °C -1.8 °C 1011.1 hPa Calm     92% 0 mm 0 W/m2
04:04 -0.7 °C -1.8 °C 1010.7 hPa Calm     92% 0 mm 0 W/m2
04:09 -0.7 °C -1.8 °C 1010.7 hPa Calm     92% 0 mm 0 W/m2
04:14 -0.8 °C -1.9 °C 1010.7 hPa Calm     92% 0 mm 0 W/m2
04:19 -0.8 °C -1.9 °C 1010.7 hPa Calm     92% 0 mm 0 W/m2
04:24 -0.8 °C -1.8 °C 1010.7 hPa Calm     92% 0 mm 0 W/m2
04:29 -0.7 °C -1.8 °C 1010.7 hPa Calm     92% 0 mm 0 W/m2
04:34 -0.8 °C -1.9 °C 1010.4 hPa Calm     92% 0 mm 0 W/m2
04:39 -0.8 °C -1.9 °C 1010.4 hPa Calm   1.6 km/h 92% 0 mm 0 W/m2
04:44 -0.9 °C -2 °C 1010.4 hPa Calm     92% 0 mm 0 W/m2
04:49 -0.9 °C -2 °C 1010 hPa Calm     92% 0 mm 0 W/m2
04:54 -0.9 °C -2 °C 1010 hPa Calm     92% 0 mm 0 W/m2
04:59 -0.9 °C -2 °C 1010 hPa Calm     92% 0 mm 0 W/m2
05:04 -0.9 °C -2.1 °C 1010 hPa Calm     92% 0 mm 0 W/m2
05:09 -1 °C -2.1 °C 1009.7 hPa Calm     92% 0 mm 0 W/m2
05:14 -1 °C -2.1 °C 1009.7 hPa Calm     92% 0 mm 0 W/m2
05:19 -1.1 °C -2.2 °C 1009.4 hPa Calm   1.6 km/h 92% 0 mm 0 W/m2
05:24 -1.1 °C -2.2 °C 1009.4 hPa Calm   1.6 km/h 92% 0 mm 0 W/m2
05:29 -1.2 °C -2.3 °C 1009.4 hPa Calm     92% 0 mm 0 W/m2
05:34 -1.2 °C -2.3 °C 1009.4 hPa Calm     92% 0 mm 0 W/m2
05:39 -1.2 °C -2.2 °C 1009 hPa Calm     92.2% 0 mm 0 W/m2
05:44 -1.2 °C -2.2 °C 1009 hPa Calm     93% 0 mm 0 W/m2
05:49 -1.2 °C -2.2 °C 1009 hPa Calm     93% 0 mm 0 W/m2
05:54 -1.2 °C -2.2 °C 1008.7 hPa Calm     93% 0 mm 0 W/m2
05:59 -1.2 °C -2.3 °C 1009 hPa Calm     92.1% 0 mm 0 W/m2
06:04 -1.3 °C -2.3 °C 1008.7 hPa Calm     92% 0 mm 0 W/m2
06:09 -1.3 °C -2.4 °C 1008.7 hPa Calm     92.2% 0 mm 0 W/m2
06:14 -1.3 °C -2.3 °C 1008.7 hPa Calm     92.8% 0 mm 0 W/m2
06:19 -1.3 °C -2.3 °C 1008.7 hPa Calm     93% 0 mm 0 W/m2
06:24 -1.2 °C -2.2 °C 1008.7 hPa Calm     93% 0 mm 0 W/m2
06:29 -1.2 °C -2.2 °C 1008.7 hPa Calm     93% 0 mm 0 W/m2
06:34 -1.2 °C -2.2 °C 1008.7 hPa Calm     93% 0 mm 0 W/m2
06:39 -1.2 °C -2.2 °C 1008.4 hPa Calm   1.6 km/h 93% 0 mm 0 W/m2
06:44 -1.2 °C -2.2 °C 1008.4 hPa Calm     93% 0 mm 0 W/m2
06:49 -1.2 °C -2.2 °C 1008.4 hPa Calm     93% 0 mm 0 W/m2
06:54 -1.2 °C -2.2 °C 1008.4 hPa NW 0.2 km/h 1.6 km/h 93% 0 mm 0 W/m2
06:59 -1.1 °C -2.1 °C 1008 hPa NW 0.2 km/h 3.2 km/h 93% 0 mm 0 W/m2
07:04 -0.9 °C -1.9 °C 1008 hPa NW 0.8 km/h 4.8 km/h 93% 0 mm 0 W/m2
07:09 -0.8 °C -1.8 °C 1008 hPa NE 1.4 km/h 11.3 km/h 93% 0 mm 0 W/m2
07:14 -0.5 °C -1.5 °C 1008 hPa ESE 2.1 km/h 11.3 km/h 93% 0 mm 5 W/m2
07:19 0 °C -1 °C 1007.7 hPa ESE 3.4 km/h 11.3 km/h 93% 0 mm 7 W/m2
07:24 0.4 °C -0.6 °C 1007.7 hPa ESE 3.1 km/h 11.3 km/h 93% 0 mm 7 W/m2
07:29 0.7 °C -0.3 °C 1007.7 hPa ESE 1.3 km/h 8 km/h 93% 0 mm 11 W/m2
07:34 0.8 °C -0.2 °C 1007.7 hPa East 2.7 km/h 14.5 km/h 93% 0 mm 12 W/m2
07:39 0.8 °C -0.2 °C 1007.3 hPa East 2.1 km/h 11.3 km/h 93% 0 mm 18 W/m2
07:44 0.9 °C -0.1 °C 1007.3 hPa East 1.9 km/h 12.9 km/h 93.2% 0 mm 19 W/m2
07:49 1.1 °C 0.1 °C 1007.3 hPa ESE 0.6 km/h 6.4 km/h 93% 0 mm 21 W/m2
07:54 1.2 °C 0.2 °C 1007.3 hPa ESE 3.2 km/h 14.5 km/h 93% 0 mm 21 W/m2
07:59 1.4 °C 0.4 °C 1007 hPa ESE 2.3 km/h 4.8 km/h 93% 0 mm 25 W/m2
08:04 1.6 °C 0.6 °C 1007 hPa ESE 1.1 km/h 6.4 km/h 93% 0 mm 28 W/m2
08:09 1.6 °C 0.6 °C 1006.7 hPa ESE 1.6 km/h 6.4 km/h 93% 0 mm 32 W/m2
08:14 1.7 °C 0.7 °C 1006.7 hPa ESE 1 km/h 4.8 km/h 93% 0 mm 32 W/m2
08:19 1.7 °C 0.7 °C 1006.3 hPa SE 4 km/h 11.3 km/h 93% 0 mm 30 W/m2
08:24 1.8 °C 0.8 °C 1006.3 hPa ESE 4 km/h 12.9 km/h 93% 0 mm 35 W/m2
08:29 1.9 °C 0.9 °C 1006.3 hPa ESE 3.5 km/h 8 km/h 93% 0 mm 35 W/m2
08:34 2.1 °C 1.1 °C 1006.3 hPa East 2.9 km/h 8 km/h 93% 0 mm 30 W/m2
08:39 2.1 °C 1.1 °C 1006 hPa East 3.7 km/h 11.3 km/h 93% 0 mm 63 W/m2
08:44 2.1 °C 1.1 °C 1006 hPa ESE 1.8 km/h 8 km/h 93% 0 mm 81 W/m2
08:49 2.2 °C 1.2 °C 1006 hPa SE 2.4 km/h 12.9 km/h 93% 0 mm 81 W/m2
08:54 2.2 °C 1.2 °C 1006 hPa SSE 1.8 km/h 12.9 km/h 93% 0 mm 70 W/m2
08:59 2.3 °C 1.2 °C 1005.6 hPa East 2.3 km/h 11.3 km/h 92.3% 0 mm 60 W/m2
09:04 2.4 °C 1.2 °C 1005.6 hPa ENE 1.3 km/h 9.7 km/h 92% 0 mm 53 W/m2
09:09 2.4 °C 1.2 °C 1005.6 hPa ENE 1.1 km/h 4.8 km/h 92% 0 mm 56 W/m2
09:14 2.5 °C 1.3 °C 1005.6 hPa ENE 2.7 km/h 9.7 km/h 92% 0 mm 56 W/m2
09:19 2.6 °C 1.4 °C 1005.6 hPa East 2.4 km/h 8 km/h 92% 0 mm 53 W/m2
09:24 2.7 °C 1.4 °C 1005.3 hPa ESE 4.3 km/h 14.5 km/h 92% 0 mm 46 W/m2
09:29 2.7 °C 1.5 °C 1005 hPa ESE 2.7 km/h 8 km/h 92% 0 mm 60 W/m2
09:34 2.8 °C 1.6 °C 1005 hPa ESE 4.2 km/h 11.3 km/h 91.5% 0 mm 60 W/m2
09:39 2.8 °C 1.5 °C 1004.6 hPa ESE 6.4 km/h 14.5 km/h 91% 0 mm 46 W/m2
09:44 2.8 °C 1.6 °C 1004.6 hPa ESE 4.2 km/h 16.1 km/h 91% 0 mm 44 W/m2
09:49 2.9 °C 1.6 °C 1004.6 hPa ESE 4.2 km/h 12.9 km/h 91% 0 mm 40 W/m2
09:54 2.9 °C 1.7 °C 1004.6 hPa SE 3.5 km/h 11.3 km/h 91% 0 mm 40 W/m2
09:59 3.1 °C 1.8 °C 1004.3 hPa SE 5.8 km/h 14.5 km/h 91% 0 mm 35 W/m2
10:04 3.2 °C 1.8 °C 1004.3 hPa SE 3.7 km/h 14.5 km/h 91% 0 mm 26 W/m2
10:09 3.2 °C 1.9 °C 1004.3 hPa ESE 3.1 km/h 8 km/h 91% 0.25 mm 21 W/m2
10:14 3.2 °C 1.9 °C 1004.3 hPa ESE 4.2 km/h 9.7 km/h 91% 0.25 mm 19 W/m2
10:19 3.3 °C 2 °C 1003.9 hPa ESE 5.1 km/h 11.3 km/h 91% 0.51 mm 19 W/m2
10:24 3.4 °C 2.1 °C 1003.9 hPa ESE 4.3 km/h 12.9 km/h 91% 0.51 mm 18 W/m2
10:29 3.5 °C 2.2 °C 1003.9 hPa ESE 3.7 km/h 12.9 km/h 91% 0.76 mm 12 W/m2
10:34 3.6 °C 2.3 °C 1003.9 hPa ESE 4.5 km/h 14.5 km/h 91% 1.02 mm 9 W/m2
10:39 3.6 °C 2.3 °C 1003.9 hPa ESE 4.2 km/h 9.7 km/h 91% 1.52 mm 11 W/m2
10:44 3.6 °C 2.3 °C 1003.6 hPa ESE 2.7 km/h 9.7 km/h 91% 1.78 mm 16 W/m2
10:49 3.6 °C 2.3 °C 1003.6 hPa SE 3.9 km/h 9.7 km/h 91% 2.29 mm 19 W/m2
10:54 3.7 °C 2.4 °C 1003.6 hPa SE 3.4 km/h 9.7 km/h 91.5% 2.79 mm 21 W/m2
10:59 3.8 °C 2.6 °C 1003.6 hPa ESE 3.2 km/h 12.9 km/h 92% 3.05 mm 21 W/m2
11:04 3.9 °C 2.7 °C 1003.3 hPa ESE 4.7 km/h 16.1 km/h 92% 3.3 mm 18 W/m2
11:09 4.1 °C 2.8 °C 1003.3 hPa ESE 3.9 km/h 16.1 km/h 92% 3.3 mm 14 W/m2
11:14 4.1 °C 2.9 °C 1003.3 hPa ESE 1 km/h 8 km/h 92% 3.56 mm 14 W/m2
11:19 4.2 °C 2.9 °C 1003.3 hPa ESE 1.3 km/h 6.4 km/h 92% 3.81 mm 25 W/m2
11:24 4.2 °C 3 °C 1003.3 hPa ESE 2.6 km/h 6.4 km/h 92% 3.81 mm 28 W/m2
11:29 4.2 °C 3 °C 1002.9 hPa ESE 2.4 km/h 8 km/h 92% 3.81 mm 21 W/m2
11:34 4.2 °C 3 °C 1002.9 hPa ESE 4.3 km/h 14.5 km/h 92% 4.06 mm 26 W/m2
11:39 4.3 °C 3.1 °C 1002.9 hPa ESE 5 km/h 14.5 km/h 92% 4.32 mm 26 W/m2
11:44 4.3 °C 3.1 °C 1002.6 hPa SE 3.4 km/h 12.9 km/h 92% 4.06 mm 25 W/m2
11:49 4.4 °C 3.4 °C 1002.6 hPa ESE 3.9 km/h 12.9 km/h 93% 3.81 mm 33 W/m2
11:54 4.4 °C 3.4 °C 1002.3 hPa ESE 3.5 km/h 11.3 km/h 93% 3.3 mm 33 W/m2
11:59 4.5 °C 3.5 °C 1002.3 hPa ESE 3.4 km/h 11.3 km/h 93% 3.05 mm 35 W/m2
12:04 4.6 °C 3.6 °C 1001.9 hPa East 2.6 km/h 8 km/h 93% 3.05 mm 37 W/m2
12:09 4.7 °C 3.7 °C 1001.9 hPa ESE 3.4 km/h 11.3 km/h 93% 3.05 mm 35 W/m2
12:14 4.8 °C 3.8 °C 1001.9 hPa ESE 3.4 km/h 11.3 km/h 93% 2.79 mm 32 W/m2
12:19 4.8 °C 3.8 °C 1001.6 hPa ESE 6.3 km/h 16.1 km/h 93% 2.54 mm 30 W/m2
12:24 4.8 °C 3.8 °C 1001.6 hPa ESE 3.9 km/h 16.1 km/h 93% 2.29 mm 28 W/m2
12:29 4.9 °C 3.9 °C 1001.6 hPa SE 3.4 km/h 16.1 km/h 93% 2.29 mm 26 W/m2
12:34 4.9 °C 3.9 °C 1001.6 hPa ESE 5.6 km/h 11.3 km/h 93% 2.29 mm 32 W/m2
12:39 4.9 °C 3.9 °C 1001.2 hPa ESE 7.1 km/h 12.9 km/h 93% 2.03 mm 37 W/m2
12:44 5.1 °C 4.2 °C 1000.9 hPa ESE 6.8 km/h 14.5 km/h 93.8% 1.78 mm 37 W/m2
12:49 5.2 °C 4.3 °C 1000.9 hPa East 6.9 km/h 16.1 km/h 93.8% 1.78 mm 44 W/m2
12:54 5.2 °C 4.3 °C 1000.6 hPa East 5.1 km/h 14.5 km/h 94% 1.78 mm 47 W/m2
12:59 5.3 °C 4.3 °C 1000.2 hPa East 5.8 km/h 16.1 km/h 94% 1.78 mm 47 W/m2
13:04 5.3 °C 4.4 °C 1000.2 hPa East 1.9 km/h 9.7 km/h 94% 1.52 mm 54 W/m2
13:09 5.3 °C 4.4 °C 1000.2 hPa ENE 0.3 km/h 4.8 km/h 94% 1.52 mm 54 W/m2
13:14 5.3 °C 4.4 °C 1000.2 hPa East 1.9 km/h 8 km/h 94% 1.52 mm 39 W/m2
13:19 5.4 °C 4.5 °C 1000.6 hPa East 1 km/h 8 km/h 94% 1.27 mm 26 W/m2
13:24 5.4 °C 4.5 °C 1000.6 hPa East 2.9 km/h 6.4 km/h 94% 1.02 mm 51 W/m2
13:29 5.6 °C 4.7 °C 1000.6 hPa East 1 km/h 6.4 km/h 94% 0.76 mm 54 W/m2
13:34 5.6 °C 4.7 °C 1000.6 hPa ESE 3.7 km/h 11.3 km/h 94% 0.76 mm 74 W/m2
13:39 5.7 °C 4.8 °C 1000.2 hPa ESE 3.5 km/h 9.7 km/h 94% 0.51 mm 74 W/m2
13:44 5.7 °C 4.8 °C 1000.2 hPa ESE 3.7 km/h 9.7 km/h 94% 0.51 mm 72 W/m2
13:49 5.8 °C 4.8 °C 1000.2 hPa ESE 2.7 km/h 8 km/h 94% 0.51 mm 86 W/m2
13:54 5.8 °C 4.9 °C 1000.2 hPa ESE 0.8 km/h 6.4 km/h 94% 0.25 mm 86 W/m2
13:59 5.9 °C 5 °C 1000.2 hPa ESE 0.8 km/h 3.2 km/h 94% 0 mm 67 W/m2
14:04 6 °C 5.1 °C 1000.2 hPa ESE 0.2 km/h 3.2 km/h 94% 0 mm 70 W/m2
14:09 6.1 °C 5.2 °C 1000.2 hPa Calm   1.6 km/h 94% 0 mm 72 W/m2
14:14 6.2 °C 5.2 °C 1000.2 hPa ESE 0.6 km/h 3.2 km/h 94% 0 mm 83 W/m2
14:19 6.2 °C 5.3 °C 1000.2 hPa Calm   3.2 km/h 94% 0 mm 93 W/m2
14:24 6.3 °C 5.4 °C 1000.2 hPa Calm     94% 0 mm 137 W/m2
14:29 6.4 °C 5.5 °C 1000.2 hPa Calm     94% 0 mm 186 W/m2
14:34 6.6 °C 5.7 °C 1000.2 hPa Calm     94% 0 mm 230 W/m2
14:39 6.8 °C 6.1 °C 1000.2 hPa ESE 0.5 km/h 3.2 km/h 94.9% 0 mm 258 W/m2
14:44 6.9 °C 6.2 °C 1000.2 hPa Calm   1.6 km/h 94.8% 0 mm 251 W/m2
14:49 7.1 °C 6.2 °C 1000.2 hPa Calm     94% 0 mm 230 W/m2
14:54 7 °C 6.1 °C 1000.2 hPa Calm   1.6 km/h 94.1% 0 mm 141 W/m2
14:59 6.9 °C 6.2 °C 1000.2 hPa ESE 0.6 km/h 3.2 km/h 94.6% 0 mm 72 W/m2
15:04 6.9 °C 6.2 °C 1000.2 hPa ESE 0.6 km/h 4.8 km/h 94.7% 0 mm 67 W/m2
15:09 6.9 °C 6.2 °C 1000.2 hPa ESE 3.7 km/h 6.4 km/h 94.7% 0 mm 56 W/m2
15:14 6.8 °C 6.1 °C 1000.2 hPa ESE 4.7 km/h 8 km/h 95% 0 mm 49 W/m2
15:19 6.8 °C 6.1 °C 1000.2 hPa NW 4.7 km/h 12.9 km/h 95% 0 mm 67 W/m2
15:24 6.7 °C 5.9 °C 1000.2 hPa West 6.3 km/h 12.9 km/h 94.5% 0 mm 88 W/m2
15:29 6.7 °C 5.8 °C 1000.2 hPa West 5 km/h 11.3 km/h 94% 0 mm 90 W/m2
15:34 6.6 °C 5.7 °C 1000.2 hPa WNW 6.6 km/h 12.9 km/h 94% 0 mm 90 W/m2
15:39 6.6 °C 5.7 °C 1000.2 hPa WNW 3.5 km/h 9.7 km/h 94% 0 mm 83 W/m2
15:44 6.6 °C 5.7 °C 1000.2 hPa WNW 1.9 km/h 9.7 km/h 94% 0 mm 74 W/m2
15:49 6.6 °C 5.7 °C 1000.2 hPa WNW 1.1 km/h 9.7 km/h 94% 0 mm 69 W/m2
15:54 6.6 °C 5.7 °C 1000.2 hPa WNW 3.1 km/h 11.3 km/h 94% 0 mm 40 W/m2
15:59 6.6 °C 5.7 °C 1000.2 hPa NW 5.1 km/h 12.9 km/h 94% 0 mm 18 W/m2
16:04 6.5 °C 5.6 °C 1000.2 hPa NW 5.5 km/h 11.3 km/h 94% 0 mm 18 W/m2
16:09 6.4 °C 5.5 °C 1000.2 hPa NW 3.4 km/h 8 km/h 94% 0 mm 14 W/m2
16:14 6.3 °C 5.4 °C 1000.2 hPa NW 3.4 km/h 11.3 km/h 94% 0 mm 9 W/m2
16:19 6.2 °C 5.3 °C 1000.2 hPa NW 4.2 km/h 8 km/h 94% 0 mm 5 W/m2
16:24 6.2 °C 5.3 °C 1000.2 hPa NW 2.6 km/h 9.7 km/h 94% 0 mm 5 W/m2
16:29 6.1 °C 5.2 °C 1000.6 hPa WNW 4.5 km/h 12.9 km/h 94% 0 mm 0 W/m2
16:34 6.1 °C 5.2 °C 1000.6 hPa NW 7.2 km/h 14.5 km/h 94% 0 mm 0 W/m2
16:39 6 °C 5.1 °C 1000.9 hPa NW 6.4 km/h 14.5 km/h 94% 0 mm 0 W/m2
16:44 5.9 °C 5.1 °C 1000.9 hPa NW 5.8 km/h 16.1 km/h 94% 0 mm 0 W/m2
16:49 5.9 °C 5 °C 1000.9 hPa NW 6.3 km/h 16.1 km/h 94% 0 mm 0 W/m2
16:54 5.8 °C 4.9 °C 1000.9 hPa NW 6.4 km/h 14.5 km/h 94% 0 mm 0 W/m2
16:59 5.8 °C 4.9 °C 1000.9 hPa NW 4.2 km/h 14.5 km/h 94% 0 mm 0 W/m2
17:04 5.7 °C 4.8 °C 1000.9 hPa NW 2.9 km/h 9.7 km/h 94% 0 mm 0 W/m2
17:09 5.7 °C 4.8 °C 1001.2 hPa NW 3.5 km/h 9.7 km/h 94% 0 mm 0 W/m2
17:14 5.7 °C 4.8 °C 1001.2 hPa NW 1.3 km/h 6.4 km/h 94% 0 mm 0 W/m2
17:19 5.8 °C 4.9 °C 1001.2 hPa NW 1.4 km/h 14.5 km/h 94% 0 mm 0 W/m2
17:24 5.7 °C 4.8 °C 1001.2 hPa NW 8.9 km/h 14.5 km/h 94% 0 mm 0 W/m2
17:29 5.7 °C 4.8 °C 1001.2 hPa WNW 6 km/h 14.5 km/h 94% 0 mm 0 W/m2
17:34 5.7 °C 4.8 °C 1001.2 hPa NW 3.7 km/h 11.3 km/h 94% 0 mm 0 W/m2
17:39 5.7 °C 4.8 °C 1001.2 hPa NW 2.7 km/h 9.7 km/h 94% 0 mm 0 W/m2
17:44 5.7 °C 4.8 °C 1001.2 hPa NW 2.6 km/h 8 km/h 94% 0 mm 0 W/m2
17:49 5.7 °C 4.8 °C 1001.2 hPa NW 1 km/h 4.8 km/h 94% 0 mm 0 W/m2
17:54 5.7 °C 4.8 °C 1001.2 hPa NW 1 km/h 3.2 km/h 94% 0 mm 0 W/m2
17:59 5.6 °C 4.7 °C 1001.2 hPa NW 0.2 km/h 3.2 km/h 94% 0 mm 0 W/m2
18:04 5.5 °C 4.6 °C 1001.2 hPa NW 2.9 km/h 8 km/h 94% 0 mm 0 W/m2
18:09 5.3 °C 4.4 °C 1001.2 hPa NW 2.4 km/h 6.4 km/h 94% 0 mm 0 W/m2
18:14 5.3 °C 4.4 °C 1001.2 hPa NW 2.6 km/h 6.4 km/h 94% 0 mm 0 W/m2
18:19 5.4 °C 4.5 °C 1001.2 hPa NW 0.8 km/h 6.4 km/h 94% 0 mm 0 W/m2
18:24 5.4 °C 4.5 °C 1001.2 hPa NW 2.7 km/h 8 km/h 94% 0 mm 0 W/m2
18:29 5.3 °C 4.4 °C 1001.6 hPa Calm   8 km/h 94% 0 mm 0 W/m2
18:34 5.4 °C 4.5 °C 1001.2 hPa NW 0.5 km/h 4.8 km/h 94% 0 mm 0 W/m2
18:39 5.4 °C 4.5 °C 1001.6 hPa NW 0.5 km/h 3.2 km/h 94% 0 mm 0 W/m2
18:44 5.4 °C 4.5 °C 1001.6 hPa NW 1 km/h 4.8 km/h 94% 0 mm 0 W/m2
18:49 5.4 °C 4.5 °C 1001.6 hPa NW 3.9 km/h 8 km/h 94% 0 mm 0 W/m2
18:54 5.4 °C 4.5 °C 1001.6 hPa NW 3.5 km/h 8 km/h 94% 0 mm 0 W/m2
18:59 5.4 °C 4.5 °C 1001.2 hPa NW 3.2 km/h 8 km/h 94% 0 mm 0 W/m2
19:04 5.4 °C 4.5 °C 1001.2 hPa WNW 3.5 km/h 8 km/h 94% 0 mm 0 W/m2
19:09 5.4 °C 4.5 °C 1001.6 hPa WNW 4 km/h 9.7 km/h 94% 0 mm 0 W/m2
19:14 5.4 °C 4.5 °C 1001.6 hPa WNW 4 km/h 9.7 km/h 94% 0 mm 0 W/m2
19:19 5.3 °C 4.4 °C 1001.6 hPa WNW 4.5 km/h 8 km/h 94% 0 mm 0 W/m2
19:24 5.3 °C 4.4 °C 1001.2 hPa WNW 5 km/h 8 km/h 94% 0 mm 0 W/m2
19:29 5.3 °C 4.4 °C 1001.2 hPa WNW 5 km/h 8 km/h 94% 0 mm 0 W/m2
19:34 5.3 °C 4.4 °C 1001.6 hPa WNW 2.9 km/h 8 km/h 94% 0 mm 0 W/m2
19:39 5.4 °C 4.5 °C 1001.6 hPa WNW 1.9 km/h 4.8 km/h 94% 0 mm 0 W/m2
19:44 5.4 °C 4.5 °C 1001.6 hPa WNW 1 km/h 4.8 km/h 94% 0 mm 0 W/m2
19:49 5.4 °C 4.5 °C 1001.6 hPa WNW 2.1 km/h 6.4 km/h 94% 0 mm 0 W/m2
19:54 5.4 °C 4.5 °C 1001.6 hPa WNW 2.4 km/h 8 km/h 94% 0 mm 0 W/m2
19:59 5.4 °C 4.5 °C 1001.6 hPa WNW 2.9 km/h 6.4 km/h 94% 0 mm 0 W/m2
20:04 5.4 °C 4.5 °C 1001.6 hPa WNW 3.7 km/h 9.7 km/h 94% 0 mm 0 W/m2
20:09 5.4 °C 4.6 °C 1001.6 hPa WNW 1.9 km/h 6.4 km/h 94% 0 mm 0 W/m2
20:14 5.5 °C 4.6 °C 1001.6 hPa WNW 1.6 km/h 6.4 km/h 94% 0 mm 0 W/m2
20:19 5.5 °C 4.6 °C 1001.6 hPa WNW 2.7 km/h 8 km/h 94% 0 mm 0 W/m2
20:24 5.5 °C 4.6 °C 1001.6 hPa WNW 1 km/h 4.8 km/h 94% 0 mm 0 W/m2
20:29 5.5 °C 4.6 °C 1001.6 hPa WNW 3.2 km/h 8 km/h 94% 0 mm 0 W/m2
20:34 5.5 °C 4.6 °C 1001.6 hPa WNW 3.4 km/h 9.7 km/h 94% 0 mm 0 W/m2
20:39 5.5 °C 4.6 °C 1001.6 hPa WNW 1.1 km/h 6.4 km/h 94% 0 mm 0 W/m2
20:44 5.5 °C 4.6 °C 1001.6 hPa WNW 0.3 km/h 4.8 km/h 94% 0 mm 0 W/m2
20:49 5.4 °C 4.5 °C 1001.6 hPa WNW 1.9 km/h 8 km/h 94% 0 mm 0 W/m2
20:54 5.4 °C 4.5 °C 1001.6 hPa WNW 2.7 km/h 9.7 km/h 94% 0 mm 0 W/m2
20:59 5.4 °C 4.5 °C 1001.6 hPa WNW 1.8 km/h 4.8 km/h 94% 0 mm 0 W/m2
21:04 5.3 °C 4.4 °C 1001.6 hPa NW 3.9 km/h 11.3 km/h 94% 0 mm 0 W/m2
21:09 5.3 °C 4.4 °C 1001.6 hPa NNW 4.2 km/h 11.3 km/h 94% 0 mm 0 W/m2
21:14 5.3 °C 4.3 °C 1001.9 hPa NW 4.5 km/h 11.3 km/h 94% 0 mm 0 W/m2
21:19 5.3 °C 4.3 °C 1001.9 hPa NW 3.7 km/h 9.7 km/h 94% 0 mm 0 W/m2
21:24 5.3 °C 4.4 °C 1001.9 hPa NW 4.7 km/h 9.7 km/h 94% 0 mm 0 W/m2
21:29 5.3 °C 4.4 °C 1001.9 hPa NW 5.1 km/h 11.3 km/h 94% 0 mm 0 W/m2
21:34 5.3 °C 4.4 °C 1001.9 hPa NW 3.5 km/h 11.3 km/h 94% 0 mm 0 W/m2
21:39 5.3 °C 4.4 °C 1001.9 hPa NW 3.4 km/h 11.3 km/h 94% 0 mm 0 W/m2
21:44 5.4 °C 4.5 °C 1001.9 hPa NW 3.2 km/h 8 km/h 94% 0 mm 0 W/m2
21:49 5.4 °C 4.5 °C 1001.9 hPa NW 1.6 km/h 6.4 km/h 94% 0 mm 0 W/m2
21:54 5.3 °C 4.4 °C 1001.9 hPa NNW 7.2 km/h 14.5 km/h 94% 0 mm 0 W/m2
21:59 5.2 °C 4.3 °C 1001.9 hPa NNW 6 km/h 12.9 km/h 94% 0 mm 0 W/m2
22:04 5.2 °C 4.3 °C 1001.9 hPa North 3.2 km/h 11.3 km/h 94% 0 mm 0 W/m2
22:09 5.2 °C 4.2 °C 1001.9 hPa North 6.8 km/h 12.9 km/h 94% 0 mm 0 W/m2
22:14 5.1 °C 4.2 °C 1001.9 hPa NNE 7.4 km/h 16.1 km/h 94% 0 mm 0 W/m2
22:19 5 °C 4.1 °C 1001.9 hPa North 7.6 km/h 16.1 km/h 94% 0 mm 0 W/m2
22:24 5 °C 4.1 °C 1001.9 hPa North 5.1 km/h 12.9 km/h 94% 0 mm 0 W/m2
22:29 5 °C 4.1 °C 1001.9 hPa North 6.6 km/h 19.3 km/h 94% 0 mm 0 W/m2
22:34 4.9 °C 4.1 °C 1001.9 hPa NNW 6.1 km/h 14.5 km/h 94% 0 mm 0 W/m2
22:39 4.9 °C 4.1 °C 1001.9 hPa NNW 4.5 km/h 14.5 km/h 94% 0 mm 0 W/m2
22:44 5 °C 4.1 °C 1002.3 hPa North 4 km/h 11.3 km/h 94% 0 mm 0 W/m2
22:49 5.1 °C 4.2 °C 1002.3 hPa NNW 2.4 km/h 12.9 km/h 94% 0 mm 0 W/m2
22:54 5.1 °C 4.2 °C 1002.3 hPa NNW 2.3 km/h 6.4 km/h 94% 0 mm 0 W/m2
22:59 5.1 °C 4.2 °C 1002.3 hPa North 6.1 km/h 16.1 km/h 94% 0 mm 0 W/m2
23:04 5.1 °C 4.2 °C 1002.3 hPa NNW 7.1 km/h 17.7 km/h 94% 0 mm 0 W/m2
23:09 5.2 °C 4.2 °C 1002.3 hPa NNW 8 km/h 14.5 km/h 94% 0 mm 0 W/m2
23:14 5.2 °C 4.3 °C 1002.6 hPa NNW 7.1 km/h 14.5 km/h 94% 0 mm 0 W/m2
23:19 5.2 °C 4.3 °C 1002.6 hPa NNW 8.9 km/h 16.1 km/h 94% 0 mm 0 W/m2
23:24 5.2 °C 4.3 °C 1002.6 hPa NNW 7.1 km/h 16.1 km/h 94% 0 mm 0 W/m2
23:29 5.2 °C 4.3 °C 1002.6 hPa NNW 3.9 km/h 14.5 km/h 94% 0 mm 0 W/m2
23:34 5.2 °C 4.3 °C 1002.6 hPa NNW 6.6 km/h 16.1 km/h 94% 0 mm 0 W/m2
23:39 5.2 °C 4.3 °C 1002.6 hPa NW 5 km/h 17.7 km/h 94% 0 mm 0 W/m2
23:44 5.2 °C 4.3 °C 1002.9 hPa North 5 km/h 12.9 km/h 94% 0 mm 0 W/m2
23:49 5.2 °C 4.3 °C 1002.9 hPa NNW 5 km/h 12.9 km/h 94% 0 mm 0 W/m2
23:54 5.2 °C 4.3 °C 1002.6 hPa NW 4.3 km/h 12.9 km/h 94% 0 mm 0 W/m2
23:59 5.2 °C 4.3 °C 1002.9 hPa NW 5 km/h 14.5 km/h 94% 0 mm 0 W/m2
Bath Spa Weather
Compliments of Weather Underground - 2 mb